sensor_id;sensor_type;location;lat;lon;timestamp;pressure;altitude;pressure_sealevel;temperature;humidity
62942;BME280;49042;47.318;19.874;2023-03-22T00:02:04;100405.28;;;5.12;100.00
62942;BME280;49042;47.318;19.874;2023-03-22T00:05:05;100402.59;;;4.77;100.00
62942;BME280;49042;47.318;19.874;2023-03-22T00:08:07;100405.59;;;4.68;100.00
62942;BME280;49042;47.318;19.874;2023-03-22T00:11:10;100398.66;;;4.84;100.00
62942;BME280;49042;47.318;19.874;2023-03-22T00:14:12;100399.69;;;4.88;100.00
62942;BME280;49042;47.318;19.874;2023-03-22T00:17:13;100401.88;;;5.30;100.00
62942;BME280;49042;47.318;19.874;2023-03-22T00:20:16;100403.81;;;5.51;100.00
62942;BME280;49042;47.318;19.874;2023-03-22T00:23:21;100401.75;;;5.79;100.00
62942;BME280;49042;47.318;19.874;2023-03-22T00:26:23;100389.87;;;5.66;100.00
62942;BME280;49042;47.318;19.874;2023-03-22T00:30:59;100388.97;;;6.74;99.36
62942;BME280;49042;47.318;19.874;2023-03-22T00:34:01;100388.97;;;6.74;99.36
62942;BME280;49042;47.318;19.874;2023-03-22T00:37:03;100387.81;;;6.30;100.00
62942;BME280;49042;47.318;19.874;2023-03-22T00:40:09;100385.19;;;6.29;100.00
62942;BME280;49042;47.318;19.874;2023-03-22T00:43:12;100384.62;;;6.36;100.00
62942;BME280;49042;47.318;19.874;2023-03-22T00:46:15;100379.63;;;6.39;100.00
62942;BME280;49042;47.318;19.874;2023-03-22T00:49:18;100378.34;;;6.49;100.00
62942;BME280;49042;47.318;19.874;2023-03-22T00:52:19;100376.03;;;6.56;100.00
62942;BME280;49042;47.318;19.874;2023-03-22T00:55:22;100380.53;;;6.60;100.00
62942;BME280;49042;47.318;19.874;2023-03-22T00:58:24;100376.37;;;6.63;100.00
62942;BME280;49042;47.318;19.874;2023-03-22T01:01:25;100378.53;;;6.54;100.00
62942;BME280;49042;47.318;19.874;2023-03-22T01:04:27;100375.16;;;6.75;100.00
62942;BME280;49042;47.318;19.874;2023-03-22T01:07:29;100376.34;;;6.82;100.00
62942;BME280;49042;47.318;19.874;2023-03-22T01:10:31;100371.88;;;6.79;100.00
62942;BME280;49042;47.318;19.874;2023-03-22T01:13:34;100365.28;;;6.86;100.00
62942;BME280;49042;47.318;19.874;2023-03-22T01:16:38;100372.50;;;6.73;100.00
62942;BME280;49042;47.318;19.874;2023-03-22T01:19:39;100362.00;;;6.70;100.00
62942;BME280;49042;47.318;19.874;2023-03-22T01:22:41;100364.88;;;6.77;100.00
62942;BME280;49042;47.318;19.874;2023-03-22T01:25:43;100360.31;;;6.71;100.00
62942;BME280;49042;47.318;19.874;2023-03-22T01:28:44;100365.13;;;6.83;99.71
62942;BME280;49042;47.318;19.874;2023-03-22T01:31:46;100358.31;;;6.65;100.00
62942;BME280;49042;47.318;19.874;2023-03-22T01:34:48;100357.16;;;6.40;100.00
62942;BME280;49042;47.318;19.874;2023-03-22T01:37:50;100355.09;;;6.32;100.00
62942;BME280;49042;47.318;19.874;2023-03-22T01:40:51;100366.56;;;5.83;100.00
62942;BME280;49042;47.318;19.874;2023-03-22T01:44:23;100357.09;;;6.02;100.00
62942;BME280;49042;47.318;19.874;2023-03-22T01:47:24;100353.59;;;4.79;100.00
62942;BME280;49042;47.318;19.874;2023-03-22T01:50:26;100361.97;;;4.58;100.00
62942;BME280;49042;47.318;19.874;2023-03-22T01:53:31;100350.13;;;4.30;100.00
62942;BME280;49042;47.318;19.874;2023-03-22T01:56:38;100357.84;;;4.13;100.00
62942;BME280;49042;47.318;19.874;2023-03-22T01:59:41;100356.34;;;4.01;100.00
62942;BME280;49042;47.318;19.874;2023-03-22T02:02:45;100354.81;;;4.05;100.00
62942;BME280;49042;47.318;19.874;2023-03-22T02:05:48;100355.16;;;4.11;100.00
62942;BME280;49042;47.318;19.874;2023-03-22T02:08:50;100357.78;;;3.81;100.00
62942;BME280;49042;47.318;19.874;2023-03-22T02:15:42;100352.50;;;4.10;100.00
62942;BME280;49042;47.318;19.874;2023-03-22T02:22:57;100361.72;;;4.53;100.00
62942;BME280;49042;47.318;19.874;2023-03-22T02:36:10;100371.25;;;4.54;100.00
62942;BME280;49042;47.318;19.874;2023-03-22T02:45:40;100376.81;;;3.83;100.00
62942;BME280;49042;47.318;19.874;2023-03-22T02:49:05;100389.22;;;3.29;100.00
62942;BME280;49042;47.318;19.874;2023-03-22T02:52:34;100383.00;;;2.97;100.00
62942;BME280;49042;47.318;19.874;2023-03-22T02:55:53;100389.03;;;2.97;100.00
62942;BME280;49042;47.318;19.874;2023-03-22T02:58:59;100381.28;;;2.82;100.00
62942;BME280;49042;47.318;19.874;2023-03-22T03:02:03;100388.19;;;2.54;100.00
62942;BME280;49042;47.318;19.874;2023-03-22T03:05:07;100392.75;;;2.18;100.00
62942;BME280;49042;47.318;19.874;2023-03-22T03:08:12;100400.09;;;1.98;100.00
62942;BME280;49042;47.318;19.874;2023-03-22T03:11:16;100399.28;;;1.99;100.00
62942;BME280;49042;47.318;19.874;2023-03-22T03:14:29;100387.22;;;1.98;100.00
62942;BME280;49042;47.318;19.874;2023-03-22T03:17:40;100398.09;;;2.07;100.00
62942;BME280;49042;47.318;19.874;2023-03-22T03:20:55;100401.06;;;2.13;100.00
62942;BME280;49042;47.318;19.874;2023-03-22T03:27:31;100408.34;;;2.62;100.00
62942;BME280;49042;47.318;19.874;2023-03-22T03:30:48;100405.81;;;2.91;100.00
62942;BME280;49042;47.318;19.874;2023-03-22T03:34:04;100395.38;;;3.03;100.00
62942;BME280;49042;47.318;19.874;2023-03-22T03:37:12;100406.53;;;3.17;100.00
62942;BME280;49042;47.318;19.874;2023-03-22T03:40:22;100395.63;;;3.21;100.00
62942;BME280;49042;47.318;19.874;2023-03-22T03:43:25;100404.25;;;3.21;100.00
62942;BME280;49042;47.318;19.874;2023-03-22T03:46:28;100406.25;;;3.12;100.00
62942;BME280;49042;47.318;19.874;2023-03-22T03:49:30;100403.78;;;3.14;100.00
62942;BME280;49042;47.318;19.874;2023-03-22T03:52:31;100401.00;;;3.55;100.00
62942;BME280;49042;47.318;19.874;2023-03-22T03:55:33;100409.53;;;3.53;100.00
62942;BME280;49042;47.318;19.874;2023-03-22T03:58:35;100403.91;;;3.30;100.00
62942;BME280;49042;47.318;19.874;2023-03-22T04:01:37;100407.00;;;3.25;100.00
62942;BME280;49042;47.318;19.874;2023-03-22T04:04:40;100409.41;;;3.21;100.00
62942;BME280;49042;47.318;19.874;2023-03-22T04:07:42;100418.72;;;3.19;100.00
62942;BME280;49042;47.318;19.874;2023-03-22T04:10:48;100417.41;;;3.26;100.00
62942;BME280;49042;47.318;19.874;2023-03-22T04:13:51;100423.69;;;3.16;100.00
62942;BME280;49042;47.318;19.874;2023-03-22T04:16:53;100421.62;;;3.10;100.00
62942;BME280;49042;47.318;19.874;2023-03-22T04:19:55;100421.34;;;3.06;100.00
62942;BME280;49042;47.318;19.874;2023-03-22T04:22:57;100431.53;;;3.04;100.00
62942;BME280;49042;47.318;19.874;2023-03-22T04:25:59;100432.19;;;3.00;100.00
62942;BME280;49042;47.318;19.874;2023-03-22T04:29:01;100439.50;;;2.94;100.00
62942;BME280;49042;47.318;19.874;2023-03-22T04:32:03;100434.34;;;3.07;100.00
62942;BME280;49042;47.318;19.874;2023-03-22T04:35:06;100436.63;;;3.03;100.00
62942;BME280;49042;47.318;19.874;2023-03-22T04:38:07;100438.13;;;2.99;100.00
62942;BME280;49042;47.318;19.874;2023-03-22T04:41:10;100434.09;;;2.89;100.00
62942;BME280;49042;47.318;19.874;2023-03-22T04:44:11;100429.44;;;3.41;100.00
62942;BME280;49042;47.318;19.874;2023-03-22T04:47:13;100435.00;;;3.62;100.00
62942;BME280;49042;47.318;19.874;2023-03-22T04:50:15;100434.38;;;3.23;100.00
62942;BME280;49042;47.318;19.874;2023-03-22T04:53:16;100438.53;;;3.20;100.00
62942;BME280;49042;47.318;19.874;2023-03-22T04:56:19;100437.69;;;3.06;100.00
62942;BME280;49042;47.318;19.874;2023-03-22T04:59:21;100423.06;;;3.64;100.00
62942;BME280;49042;47.318;19.874;2023-03-22T05:02:22;100420.16;;;3.89;100.00
62942;BME280;49042;47.318;19.874;2023-03-22T05:05:24;100423.63;;;3.74;100.00
62942;BME280;49042;47.318;19.874;2023-03-22T05:08:28;100422.69;;;3.58;100.00
62942;BME280;49042;47.318;19.874;2023-03-22T05:11:30;100431.06;;;3.25;100.00
62942;BME280;49042;47.318;19.874;2023-03-22T05:14:32;100427.47;;;3.08;100.00
62942;BME280;49042;47.318;19.874;2023-03-22T05:17:33;100422.09;;;2.76;100.00
62942;BME280;49042;47.318;19.874;2023-03-22T05:20:35;100409.59;;;2.40;100.00
62942;BME280;49042;47.318;19.874;2023-03-22T05:23:38;100407.00;;;2.53;100.00
62942;BME280;49042;47.318;19.874;2023-03-22T05:26:40;100400.19;;;2.83;100.00
62942;BME280;49042;47.318;19.874;2023-03-22T05:29:44;100410.78;;;3.16;100.00
62942;BME280;49042;47.318;19.874;2023-03-22T05:32:47;100413.59;;;3.50;100.00
62942;BME280;49042;47.318;19.874;2023-03-22T05:35:50;100402.34;;;3.93;100.00
62942;BME280;49042;47.318;19.874;2023-03-22T05:38:52;100409.41;;;4.43;100.00
62942;BME280;49042;47.318;19.874;2023-03-22T05:41:53;100407.28;;;4.85;100.00
62942;BME280;49042;47.318;19.874;2023-03-22T05:44:56;100409.66;;;5.13;100.00
62942;BME280;49042;47.318;19.874;2023-03-22T05:47:57;100416.94;;;5.54;100.00
62942;BME280;49042;47.318;19.874;2023-03-22T05:50:59;100410.19;;;6.10;100.00
62942;BME280;49042;47.318;19.874;2023-03-22T05:54:01;100407.88;;;6.35;100.00
62942;BME280;49042;47.318;19.874;2023-03-22T05:57:02;100418.28;;;6.55;100.00
62942;BME280;49042;47.318;19.874;2023-03-22T06:00:09;100411.16;;;6.69;100.00
62942;BME280;49042;47.318;19.874;2023-03-22T06:03:13;100412.03;;;6.88;100.00
62942;BME280;49042;47.318;19.874;2023-03-22T06:06:17;100419.63;;;7.03;100.00
62942;BME280;49042;47.318;19.874;2023-03-22T06:09:19;100419.28;;;7.15;100.00
62942;BME280;49042;47.318;19.874;2023-03-22T06:12:21;100421.50;;;7.88;97.80
62942;BME280;49042;47.318;19.874;2023-03-22T06:15:25;100419.06;;;8.81;92.70
62942;BME280;49042;47.318;19.874;2023-03-22T06:18:27;100423.56;;;8.85;89.53
62942;BME280;49042;47.318;19.874;2023-03-22T06:21:29;100422.56;;;8.60;90.31
62942;BME280;49042;47.318;19.874;2023-03-22T06:24:31;100426.19;;;9.34;86.16
62942;BME280;49042;47.318;19.874;2023-03-22T06:27:33;100421.91;;;10.13;83.22
62942;BME280;49042;47.318;19.874;2023-03-22T06:30:35;100434.84;;;10.66;78.80
62942;BME280;49042;47.318;19.874;2023-03-22T06:33:37;100433.25;;;11.99;72.78
62942;BME280;49042;47.318;19.874;2023-03-22T06:36:38;100438.75;;;12.10;71.75
62942;BME280;49042;47.318;19.874;2023-03-22T06:39:41;100446.97;;;15.16;56.93
62942;BME280;49042;47.318;19.874;2023-03-22T06:42:43;100459.16;;;17.39;47.94
62942;BME280;49042;47.318;19.874;2023-03-22T06:45:46;100475.16;;;16.19;50.39
62942;BME280;49042;47.318;19.874;2023-03-22T06:48:48;100488.03;;;15.11;52.15
62942;BME280;49042;47.318;19.874;2023-03-22T06:51:49;100500.56;;;12.42;66.28
62942;BME280;49042;47.318;19.874;2023-03-22T06:54:51;100495.84;;;10.99;75.31
62942;BME280;49042;47.318;19.874;2023-03-22T06:57:53;100500.91;;;10.38;80.20
62942;BME280;49042;47.318;19.874;2023-03-22T07:00:55;100504.34;;;10.93;78.75
62942;BME280;49042;47.318;19.874;2023-03-22T07:03:57;100508.75;;;10.38;77.51
62942;BME280;49042;47.318;19.874;2023-03-22T07:06:59;100510.31;;;10.59;75.23
62942;BME280;49042;47.318;19.874;2023-03-22T07:10:01;100507.69;;;10.59;76.93
62942;BME280;49042;47.318;19.874;2023-03-22T07:13:02;100509.81;;;11.30;73.25
62942;BME280;49042;47.318;19.874;2023-03-22T07:16:04;100516.16;;;11.09;73.26
62942;BME280;49042;47.318;19.874;2023-03-22T07:19:06;100513.56;;;11.09;74.64
62942;BME280;49042;47.318;19.874;2023-03-22T07:22:08;100503.03;;;12.73;66.90
62942;BME280;49042;47.318;19.874;2023-03-22T07:25:10;100506.38;;;13.06;64.50
62942;BME280;49042;47.318;19.874;2023-03-22T07:28:12;100521.25;;;14.49;57.15
62942;BME280;49042;47.318;19.874;2023-03-22T07:31:14;100521.59;;;14.71;54.89
62942;BME280;49042;47.318;19.874;2023-03-22T07:34:16;100521.91;;;14.34;54.77
62942;BME280;49042;47.318;19.874;2023-03-22T07:37:18;100518.75;;;14.55;54.95
62942;BME280;49042;47.318;19.874;2023-03-22T07:40:19;100520.03;;;15.48;51.64
62942;BME280;49042;47.318;19.874;2023-03-22T07:43:22;100520.62;;;15.25;50.63
62942;BME280;49042;47.318;19.874;2023-03-22T07:46:23;100516.00;;;15.79;48.75
62942;BME280;49042;47.318;19.874;2023-03-22T07:49:25;100513.91;;;15.49;50.52
62942;BME280;49042;47.318;19.874;2023-03-22T07:52:27;100513.09;;;16.44;49.25
62942;BME280;49042;47.318;19.874;2023-03-22T07:55:29;100512.56;;;15.11;50.54
62942;BME280;49042;47.318;19.874;2023-03-22T07:58:31;100501.16;;;15.87;49.82
62942;BME280;49042;47.318;19.874;2023-03-22T08:01:32;100502.84;;;15.80;49.46
62942;BME280;49042;47.318;19.874;2023-03-22T08:04:34;100501.94;;;16.86;47.49
62942;BME280;49042;47.318;19.874;2023-03-22T08:07:36;100511.81;;;19.56;41.92
62942;BME280;49042;47.318;19.874;2023-03-22T08:10:38;100504.16;;;23.40;34.82
62942;BME280;49042;47.318;19.874;2023-03-22T08:13:39;100502.94;;;25.33;29.84
62942;BME280;49042;47.318;19.874;2023-03-22T08:16:42;100508.34;;;27.43;25.32
62942;BME280;49042;47.318;19.874;2023-03-22T08:19:44;100499.19;;;29.01;24.36
62942;BME280;49042;47.318;19.874;2023-03-22T08:22:46;100508.84;;;30.00;23.15
62942;BME280;49042;47.318;19.874;2023-03-22T08:25:49;100513.44;;;27.74;24.69
62942;BME280;49042;47.318;19.874;2023-03-22T08:28:51;100509.25;;;24.65;28.34
62942;BME280;49042;47.318;19.874;2023-03-22T08:31:52;100512.22;;;23.79;30.25
62942;BME280;49042;47.318;19.874;2023-03-22T08:34:54;100510.59;;;25.73;27.85
62942;BME280;49042;47.318;19.874;2023-03-22T08:37:56;100512.88;;;28.31;25.12
62942;BME280;49042;47.318;19.874;2023-03-22T08:40:58;100501.16;;;29.16;22.87
62942;BME280;49042;47.318;19.874;2023-03-22T08:44:00;100500.03;;;28.82;23.60
62942;BME280;49042;47.318;19.874;2023-03-22T08:47:02;100507.84;;;26.05;26.32
62942;BME280;49042;47.318;19.874;2023-03-22T08:50:04;100505.56;;;25.63;26.92
62942;BME280;49042;47.318;19.874;2023-03-22T08:53:05;100509.97;;;27.47;24.64
62942;BME280;49042;47.318;19.874;2023-03-22T08:56:07;100509.13;;;25.93;26.06
62942;BME280;49042;47.318;19.874;2023-03-22T08:59:10;100501.72;;;26.56;26.55
62942;BME280;49042;47.318;19.874;2023-03-22T09:02:11;100508.69;;;26.60;26.16
62942;BME280;49042;47.318;19.874;2023-03-22T09:05:13;100506.88;;;30.75;21.17
62942;BME280;49042;47.318;19.874;2023-03-22T09:08:15;100504.53;;;32.01;19.49
62942;BME280;49042;47.318;19.874;2023-03-22T09:11:20;100498.91;;;32.95;19.06
62942;BME280;49042;47.318;19.874;2023-03-22T09:14:22;100497.41;;;30.14;21.17
62942;BME280;49042;47.318;19.874;2023-03-22T09:17:24;100509.69;;;31.40;19.76
62942;BME280;49042;47.318;19.874;2023-03-22T09:20:26;100510.63;;;30.19;20.16
62942;BME280;49042;47.318;19.874;2023-03-22T09:23:27;100512.41;;;32.20;18.25
62942;BME280;49042;47.318;19.874;2023-03-22T09:26:30;100500.38;;;30.45;19.81
62942;BME280;49042;47.318;19.874;2023-03-22T09:29:32;100507.47;;;27.43;23.45
62942;BME280;49042;47.318;19.874;2023-03-22T09:32:34;100493.56;;;29.26;21.72
62942;BME280;49042;47.318;19.874;2023-03-22T09:35:40;100489.84;;;30.75;20.66
62942;BME280;49042;47.318;19.874;2023-03-22T09:38:43;100488.22;;;31.55;19.90
62942;BME280;49042;47.318;19.874;2023-03-22T09:41:49;100497.75;;;27.87;23.47
62942;BME280;49042;47.318;19.874;2023-03-22T09:44:53;100491.09;;;31.19;19.94
62942;BME280;49042;47.318;19.874;2023-03-22T09:47:57;100489.00;;;31.73;18.87
62942;BME280;49042;47.318;19.874;2023-03-22T09:51:02;100478.25;;;30.91;19.68
62942;BME280;49042;47.318;19.874;2023-03-22T09:54:11;100479.69;;;31.47;19.81
62942;BME280;49042;47.318;19.874;2023-03-22T09:57:31;100475.72;;;29.82;20.76
62942;BME280;49042;47.318;19.874;2023-03-22T10:00:42;100472.00;;;28.26;22.81
62942;BME280;49042;47.318;19.874;2023-03-22T10:04:20;100466.31;;;26.47;25.00
62942;BME280;49042;47.318;19.874;2023-03-22T10:07:17;100467.84;;;25.45;25.79
62942;BME280;49042;47.318;19.874;2023-03-22T10:10:23;100464.56;;;25.05;27.18
62942;BME280;49042;47.318;19.874;2023-03-22T10:16:30;100454.88;;;21.74;31.29
62942;BME280;49042;47.318;19.874;2023-03-22T10:19:43;100451.06;;;21.94;30.87
62942;BME280;49042;47.318;19.874;2023-03-22T10:22:51;100447.50;;;21.32;31.61
62942;BME280;49042;47.318;19.874;2023-03-22T10:25:56;100449.66;;;22.25;31.10
62942;BME280;49042;47.318;19.874;2023-03-22T10:29:10;100454.84;;;20.30;34.59
62942;BME280;49042;47.318;19.874;2023-03-22T10:32:15;100462.44;;;19.51;35.76
62942;BME280;49042;47.318;19.874;2023-03-22T10:35:17;100457.06;;;19.68;35.36
62942;BME280;49042;47.318;19.874;2023-03-22T10:38:27;100450.50;;;18.33;36.60
62942;BME280;49042;47.318;19.874;2023-03-22T10:41:32;100457.44;;;17.46;39.10
62942;BME280;49042;47.318;19.874;2023-03-22T10:44:49;100454.88;;;18.06;39.08
62942;BME280;49042;47.318;19.874;2023-03-22T10:48:00;100461.91;;;18.13;37.54
62942;BME280;49042;47.318;19.874;2023-03-22T10:51:03;100456.66;;;18.48;37.04
62942;BME280;49042;47.318;19.874;2023-03-22T10:54:12;100445.22;;;18.44;38.46
62942;BME280;49042;47.318;19.874;2023-03-22T10:57:14;100449.53;;;18.78;38.00
62942;BME280;49042;47.318;19.874;2023-03-22T11:00:16;100443.44;;;17.94;39.40
62942;BME280;49042;47.318;19.874;2023-03-22T11:03:25;100444.25;;;17.43;40.79
62942;BME280;49042;47.318;19.874;2023-03-22T11:06:29;100446.91;;;17.63;40.04
62942;BME280;49042;47.318;19.874;2023-03-22T11:09:33;100439.81;;;17.28;40.97
62942;BME280;49042;47.318;19.874;2023-03-22T11:12:42;100439.03;;;17.82;39.00
62942;BME280;49042;47.318;19.874;2023-03-22T11:15:59;100435.47;;;17.44;39.07
62942;BME280;49042;47.318;19.874;2023-03-22T11:19:02;100423.19;;;17.77;39.87
62942;BME280;49042;47.318;19.874;2023-03-22T11:22:38;100418.72;;;17.29;41.04
62942;BME280;49042;47.318;19.874;2023-03-22T11:25:47;100417.06;;;17.72;39.00
62942;BME280;49042;47.318;19.874;2023-03-22T11:28:50;100409.09;;;18.41;39.44
62942;BME280;49042;47.318;19.874;2023-03-22T11:35:03;100415.31;;;18.29;38.38
62942;BME280;49042;47.318;19.874;2023-03-22T11:38:04;100404.75;;;18.29;37.85
62942;BME280;49042;47.318;19.874;2023-03-22T11:41:12;100403.84;;;18.32;37.97
62942;BME280;49042;47.318;19.874;2023-03-22T11:44:20;100400.34;;;18.24;38.12
62942;BME280;49042;47.318;19.874;2023-03-22T11:47:25;100406.50;;;17.93;37.40
62942;BME280;49042;47.318;19.874;2023-03-22T11:50:31;100403.88;;;18.29;35.38
62942;BME280;49042;47.318;19.874;2023-03-22T11:53:40;100398.56;;;18.38;32.38
62942;BME280;49042;47.318;19.874;2023-03-22T11:56:46;100395.84;;;18.64;33.22
62942;BME280;49042;47.318;19.874;2023-03-22T11:59:56;100393.28;;;18.37;34.92
62942;BME280;49042;47.318;19.874;2023-03-22T12:03:03;100389.78;;;18.19;35.00
62942;BME280;49042;47.318;19.874;2023-03-22T12:06:18;100382.78;;;17.80;36.68
62942;BME280;49042;47.318;19.874;2023-03-22T12:09:40;100387.13;;;18.17;35.96
62942;BME280;49042;47.318;19.874;2023-03-22T12:12:49;100381.88;;;17.83;36.08
62942;BME280;49042;47.318;19.874;2023-03-22T12:15:58;100379.13;;;18.68;35.57
62942;BME280;49042;47.318;19.874;2023-03-22T12:19:24;100375.34;;;19.24;35.45
62942;BME280;49042;47.318;19.874;2023-03-22T12:22:32;100370.91;;;19.32;34.84
62942;BME280;49042;47.318;19.874;2023-03-22T12:25:35;100366.84;;;19.98;33.20
62942;BME280;49042;47.318;19.874;2023-03-22T12:31:55;100367.22;;;19.51;35.19
62942;BME280;49042;47.318;19.874;2023-03-22T12:34:58;100367.53;;;18.96;36.15
62942;BME280;49042;47.318;19.874;2023-03-22T12:41:35;100354.03;;;19.47;35.36
62942;BME280;49042;47.318;19.874;2023-03-22T12:44:41;100358.81;;;18.73;37.21
62942;BME280;49042;47.318;19.874;2023-03-22T12:47:56;100353.41;;;18.98;36.14
62942;BME280;49042;47.318;19.874;2023-03-22T12:51:04;100353.38;;;19.09;34.82
62942;BME280;49042;47.318;19.874;2023-03-22T12:54:10;100346.25;;;19.24;34.10
62942;BME280;49042;47.318;19.874;2023-03-22T12:57:14;100349.00;;;19.03;34.37
62942;BME280;49042;47.318;19.874;2023-03-22T13:00:17;100354.41;;;18.78;34.02
62942;BME280;49042;47.318;19.874;2023-03-22T13:16:20;100331.59;;;18.61;35.16
62942;BME280;49042;47.318;19.874;2023-03-22T13:19:31;100331.69;;;18.22;35.75
62942;BME280;49042;47.318;19.874;2023-03-22T13:25:57;100322.06;;;17.74;37.75
62942;BME280;49042;47.318;19.874;2023-03-22T13:29:08;100337.03;;;17.37;38.69
62942;BME280;49042;47.318;19.874;2023-03-22T13:32:29;100333.53;;;17.73;37.82
62942;BME280;49042;47.318;19.874;2023-03-22T13:38:54;100322.94;;;18.12;36.65
62942;BME280;49042;47.318;19.874;2023-03-22T13:45:30;100325.50;;;18.51;37.30
62942;BME280;49042;47.318;19.874;2023-03-22T13:51:50;100319.41;;;18.02;36.03
62942;BME280;49042;47.318;19.874;2023-03-22T13:54:54;100316.84;;;17.41;38.36
62942;BME280;49042;47.318;19.874;2023-03-22T13:57:58;100308.84;;;17.99;38.03
62942;BME280;49042;47.318;19.874;2023-03-22T14:01:11;100313.28;;;17.78;38.75
62942;BME280;49042;47.318;19.874;2023-03-22T14:04:18;100316.72;;;18.21;37.23
62942;BME280;49042;47.318;19.874;2023-03-22T14:07:28;100319.19;;;18.79;37.09
62942;BME280;49042;47.318;19.874;2023-03-22T14:10:49;100322.88;;;18.40;35.44
62942;BME280;49042;47.318;19.874;2023-03-22T14:13:58;100326.47;;;18.05;36.19
62942;BME280;49042;47.318;19.874;2023-03-22T14:17:04;100314.16;;;17.94;36.42
62942;BME280;49042;47.318;19.874;2023-03-22T14:20:24;100318.59;;;17.84;35.78
62942;BME280;49042;47.318;19.874;2023-03-22T14:23:29;100309.72;;;18.11;35.51
62942;BME280;49042;47.318;19.874;2023-03-22T14:26:53;100306.19;;;18.10;34.85
62942;BME280;49042;47.318;19.874;2023-03-22T14:29:53;100312.41;;;17.77;35.76
62942;BME280;49042;47.318;19.874;2023-03-22T14:32:55;100303.62;;;17.57;35.39
62942;BME280;49042;47.318;19.874;2023-03-22T14:36:03;100295.75;;;17.52;36.18
62942;BME280;49042;47.318;19.874;2023-03-22T14:39:15;100290.44;;;17.28;36.86
62942;BME280;49042;47.318;19.874;2023-03-22T14:42:26;100294.84;;;17.43;36.72
62942;BME280;49042;47.318;19.874;2023-03-22T14:45:32;100300.12;;;17.26;35.96
62942;BME280;49042;47.318;19.874;2023-03-22T14:48:35;100293.09;;;17.23;36.55
62942;BME280;49042;47.318;19.874;2023-03-22T14:51:40;100295.72;;;17.23;35.70
62942;BME280;49042;47.318;19.874;2023-03-22T14:54:41;100291.31;;;17.16;35.96
62942;BME280;49042;47.318;19.874;2023-03-22T14:57:54;100291.31;;;17.10;35.37
62942;BME280;49042;47.318;19.874;2023-03-22T15:01:01;100286.91;;;17.17;36.69
62942;BME280;49042;47.318;19.874;2023-03-22T15:04:10;100293.00;;;16.84;35.68
62942;BME280;49042;47.318;19.874;2023-03-22T15:07:16;100287.56;;;16.40;36.87
62942;BME280;49042;47.318;19.874;2023-03-22T15:10:27;100281.34;;;16.22;36.71
62942;BME280;49042;47.318;19.874;2023-03-22T15:13:29;100286.50;;;16.06;38.62
62942;BME280;49042;47.318;19.874;2023-03-22T15:16:32;100286.44;;;15.95;38.32
62942;BME280;49042;47.318;19.874;2023-03-22T15:19:36;100281.06;;;15.77;39.36
62942;BME280;49042;47.318;19.874;2023-03-22T15:22:37;100281.91;;;15.71;40.21
62942;BME280;49042;47.318;19.874;2023-03-22T15:25:38;100274.09;;;15.82;39.10
62942;BME280;49042;47.318;19.874;2023-03-22T15:28:42;100276.69;;;15.77;40.09
62942;BME280;49042;47.318;19.874;2023-03-22T15:31:45;100272.28;;;15.76;39.88
62942;BME280;49042;47.318;19.874;2023-03-22T15:34:48;100274.13;;;15.88;40.69
62942;BME280;49042;47.318;19.874;2023-03-22T15:37:51;100270.59;;;15.88;40.32
62942;BME280;49042;47.318;19.874;2023-03-22T15:40:54;100272.34;;;15.86;39.26
62942;BME280;49042;47.318;19.874;2023-03-22T15:43:58;100279.41;;;15.90;40.06
62942;BME280;49042;47.318;19.874;2023-03-22T15:47:13;100276.78;;;15.94;39.97
62942;BME280;49042;47.318;19.874;2023-03-22T15:50:22;100279.34;;;15.83;39.47
62942;BME280;49042;47.318;19.874;2023-03-22T15:53:31;100279.34;;;15.82;39.59
62942;BME280;49042;47.318;19.874;2023-03-22T15:56:37;100273.09;;;15.67;39.71
62942;BME280;49042;47.318;19.874;2023-03-22T16:06:09;100266.91;;;15.59;40.02
62942;BME280;49042;47.318;19.874;2023-03-22T16:09:10;100275.69;;;15.58;39.91
62942;BME280;49042;47.318;19.874;2023-03-22T16:12:15;100273.94;;;15.60;40.12
62942;BME280;49042;47.318;19.874;2023-03-22T16:15:29;100276.50;;;15.50;40.98
62942;BME280;49042;47.318;19.874;2023-03-22T16:18:30;100279.00;;;15.38;40.90
62942;BME280;49042;47.318;19.874;2023-03-22T16:21:31;100278.09;;;15.33;40.93
62942;BME280;49042;47.318;19.874;2023-03-22T16:24:33;100276.28;;;15.27;40.80
62942;BME280;49042;47.318;19.874;2023-03-22T16:27:33;100284.09;;;15.17;41.11
62942;BME280;49042;47.318;19.874;2023-03-22T16:30:35;100279.75;;;15.21;41.07
62942;BME280;49042;47.318;19.874;2023-03-22T16:33:36;100277.00;;;15.10;42.84
62942;BME280;49042;47.318;19.874;2023-03-22T16:36:37;100280.41;;;14.98;41.79
62942;BME280;49042;47.318;19.874;2023-03-22T16:39:37;100283.88;;;14.94;42.66
62942;BME280;49042;47.318;19.874;2023-03-22T16:42:42;100281.22;;;14.91;42.44
62942;BME280;49042;47.318;19.874;2023-03-22T16:45:42;100283.00;;;14.96;41.89
62942;BME280;49042;47.318;19.874;2023-03-22T16:48:43;100286.38;;;14.86;42.06
62942;BME280;49042;47.318;19.874;2023-03-22T16:51:45;100280.13;;;14.74;42.03
62942;BME280;49042;47.318;19.874;2023-03-22T16:54:46;100284.81;;;15.02;41.39
62942;BME280;49042;47.318;19.874;2023-03-22T16:57:48;100280.53;;;15.11;41.54
62942;BME280;49042;47.318;19.874;2023-03-22T17:00:49;100281.31;;;15.03;41.61
62942;BME280;49042;47.318;19.874;2023-03-22T17:03:50;100286.50;;;14.94;41.81
62942;BME280;49042;47.318;19.874;2023-03-22T17:06:51;100276.00;;;14.95;41.15
62942;BME280;49042;47.318;19.874;2023-03-22T17:09:52;100278.31;;;14.69;41.83